createdAt,value
2023-04-03T00:02:19.335Z,4.90
2023-04-03T00:04:47.648Z,4.80
2023-04-03T00:07:17.330Z,4.80
2023-04-03T00:09:45.511Z,4.80
2023-04-03T00:12:13.761Z,4.80
2023-04-03T00:14:42.001Z,4.80
2023-04-03T00:17:10.354Z,4.80
2023-04-03T00:19:38.668Z,4.80
2023-04-03T00:22:06.937Z,4.80
2023-04-03T00:24:36.556Z,4.80
2023-04-03T00:27:06.940Z,4.80
2023-04-03T00:29:35.644Z,4.80
2023-04-03T00:32:03.902Z,4.70
2023-04-03T00:34:32.362Z,4.70
2023-04-03T00:37:00.878Z,4.70
2023-04-03T00:39:29.558Z,4.60
2023-04-03T00:41:59.250Z,4.60
2023-04-03T00:45:19.281Z,4.60
2023-04-03T00:47:47.731Z,4.50
2023-04-03T00:50:16.232Z,4.50
2023-04-03T00:52:47.309Z,4.50
2023-04-03T00:55:16.363Z,4.50
2023-04-03T00:57:48.165Z,4.50
2023-04-03T01:00:23.310Z,4.40
2023-04-03T01:02:52.790Z,4.40
2023-04-03T01:05:23.106Z,4.40
2023-04-03T01:07:53.919Z,4.40
2023-04-03T01:10:23.538Z,4.30
2023-04-03T01:12:54.351Z,4.30
2023-04-03T01:15:27.564Z,4.30
2023-04-03T01:17:58.164Z,4.30
2023-04-03T01:21:11.302Z,4.30
2023-04-03T01:23:56.780Z,4.30
2023-04-03T01:26:26.704Z,4.30
2023-04-03T01:28:57.675Z,4.30
2023-04-03T01:31:31.395Z,4.20
2023-04-03T01:34:01.254Z,4.20
2023-04-03T01:36:33.992Z,4.20
2023-04-03T01:39:03.233Z,4.20
2023-04-03T01:41:31.990Z,4.20
2023-04-03T01:44:09.774Z,4.10
2023-04-03T01:46:38.511Z,4.10
2023-04-03T01:49:08.251Z,4.10
2023-04-03T01:51:36.666Z,4.10
2023-04-03T01:54:05.152Z,4.20
2023-04-03T01:56:33.393Z,4.10
2023-04-03T01:59:01.941Z,4.10
2023-04-03T02:01:30.402Z,4.10
2023-04-03T02:03:58.758Z,4.10
2023-04-03T02:06:28.397Z,4.10
2023-04-03T02:08:56.641Z,4.00
2023-04-03T02:11:24.845Z,4.00
2023-04-03T02:13:53.209Z,4.00
2023-04-03T02:16:21.629Z,4.00
2023-04-03T02:18:52.015Z,4.00
2023-04-03T02:21:20.359Z,3.90
2023-04-03T02:23:51.403Z,3.90
2023-04-03T02:26:20.950Z,3.90
2023-04-03T02:28:49.269Z,3.90
2023-04-03T02:31:17.828Z,3.90
2023-04-03T02:33:48.167Z,3.90
2023-04-03T02:36:17.816Z,3.80
2023-04-03T02:38:53.038Z,3.80
2023-04-03T02:41:21.866Z,3.80
2023-04-03T02:43:51.406Z,3.80
2023-04-03T02:46:19.746Z,3.70
2023-04-03T02:48:48.015Z,3.70
2023-04-03T02:51:16.501Z,3.70
2023-04-03T02:53:44.668Z,3.70
2023-04-03T02:56:21.143Z,3.70
2023-04-03T02:58:49.683Z,3.70
2023-04-03T03:01:19.571Z,3.60
2023-04-03T03:03:47.838Z,3.60
2023-04-03T03:06:18.622Z,3.60
2023-04-03T03:08:46.909Z,3.60
2023-04-03T03:11:15.517Z,3.60
2023-04-03T03:13:45.289Z,3.50
2023-04-03T03:16:13.544Z,3.50
2023-04-03T03:18:41.832Z,3.50
2023-04-03T03:21:12.512Z,3.50
2023-04-03T03:23:41.213Z,3.50
2023-04-03T03:26:12.444Z,3.50
2023-04-03T03:28:42.506Z,3.40
2023-04-03T03:31:13.238Z,3.40
2023-04-03T03:33:42.345Z,3.40
2023-04-03T03:36:10.956Z,3.40
2023-04-03T03:38:39.549Z,3.30
2023-04-03T03:41:08.260Z,3.30
2023-04-03T03:43:37.146Z,3.30
2023-04-03T03:46:07.385Z,3.30
2023-04-03T03:48:36.862Z,3.20
2023-04-03T03:51:05.525Z,3.20
2023-04-03T03:53:37.777Z,3.20
2023-04-03T03:56:09.805Z,3.20
2023-04-03T03:58:40.238Z,3.20
2023-04-03T04:01:09.797Z,3.20
2023-04-03T04:03:45.306Z,3.20
2023-04-03T04:06:18.499Z,3.20
2023-04-03T04:08:47.534Z,3.20
2023-04-03T04:11:17.061Z,3.20
2023-04-03T04:13:47.223Z,3.20
2023-04-03T04:16:16.812Z,3.20
2023-04-03T04:18:46.830Z,3.20
2023-04-03T04:21:15.256Z,3.20
2023-04-03T04:23:44.070Z,3.20
2023-04-03T04:26:12.324Z,3.20
2023-04-03T04:28:41.741Z,3.20
2023-04-03T04:31:10.069Z,3.20
2023-04-03T04:33:38.787Z,3.20
2023-04-03T04:36:10.708Z,3.20
2023-04-03T04:38:39.580Z,3.20
2023-04-03T04:41:08.653Z,3.20
2023-04-03T04:43:37.468Z,3.20
2023-04-03T04:46:08.848Z,3.20
2023-04-03T04:48:42.472Z,3.20
2023-04-03T04:51:13.579Z,3.20
2023-04-03T04:53:42.407Z,3.20
2023-04-03T04:56:14.384Z,3.10
2023-04-03T04:58:43.902Z,3.10
2023-04-03T05:01:13.078Z,3.10
2023-04-03T05:03:50.583Z,3.10
2023-04-03T05:06:21.314Z,3.00
2023-04-03T05:08:49.636Z,3.10
2023-04-03T05:11:18.656Z,3.10
2023-04-03T05:13:48.802Z,3.10
2023-04-03T05:16:17.113Z,3.10
2023-04-03T05:18:45.336Z,3.10
2023-04-03T05:21:20.813Z,3.10
2023-04-03T05:23:50.013Z,3.20
2023-04-03T05:26:18.277Z,3.20
2023-04-03T05:28:48.644Z,3.30
2023-04-03T05:31:17.779Z,3.40
2023-04-03T05:33:47.055Z,3.40
2023-04-03T05:36:20.392Z,3.40
2023-04-03T05:38:52.492Z,3.50
2023-04-03T05:41:24.174Z,3.60
2023-04-03T05:43:52.774Z,3.60
2023-04-03T05:46:23.308Z,3.70
2023-04-03T05:48:55.612Z,3.70
2023-04-03T05:51:36.967Z,3.80
2023-04-03T05:54:20.620Z,3.90
2023-04-03T05:56:49.457Z,3.90
2023-04-03T05:59:18.016Z,3.90
2023-04-03T06:01:47.006Z,4.00
2023-04-03T06:04:15.925Z,4.00
2023-04-03T06:06:52.425Z,4.00
2023-04-03T06:09:22.572Z,4.10
2023-04-03T06:11:51.258Z,4.20
2023-04-03T06:14:19.804Z,4.20
2023-04-03T06:16:48.403Z,4.30
2023-04-03T06:19:17.097Z,4.30
2023-04-03T06:21:51.412Z,4.30
2023-04-03T06:24:20.926Z,4.40
2023-04-03T06:26:49.838Z,4.50
2023-04-03T06:29:18.151Z,4.50
2023-04-03T06:31:48.266Z,4.60
2023-04-03T06:34:18.190Z,4.70
2023-04-03T06:36:47.430Z,4.70
2023-04-03T06:39:21.263Z,4.80
2023-04-03T06:41:49.737Z,4.80
2023-04-03T06:44:18.719Z,4.90
2023-04-03T06:46:48.316Z,5.00
2023-04-03T06:49:16.967Z,5.00
2023-04-03T06:51:45.265Z,5.10
2023-04-03T06:54:13.533Z,5.10
2023-04-03T06:56:43.411Z,5.20
2023-04-03T06:59:13.843Z,5.20
2023-04-03T07:01:42.872Z,5.20
2023-04-03T07:04:11.310Z,5.20
2023-04-03T07:06:42.872Z,5.30
2023-04-03T07:09:11.860Z,5.40
2023-04-03T07:11:40.412Z,5.50
2023-04-03T07:14:10.277Z,5.70
2023-04-03T07:16:40.883Z,5.80
2023-04-03T07:19:10.810Z,5.90
2023-04-03T07:21:39.537Z,5.90
2023-04-03T07:24:10.135Z,6.00
2023-04-03T07:26:42.024Z,6.10
2023-04-03T07:29:11.845Z,6.20
2023-04-03T07:31:42.574Z,6.30
2023-04-03T07:34:11.152Z,6.40
2023-04-03T07:36:39.684Z,6.50
2023-04-03T07:39:09.148Z,6.50
2023-04-03T07:41:37.933Z,6.60
2023-04-03T07:44:06.761Z,6.60
2023-04-03T07:46:36.554Z,6.70
2023-04-03T07:49:04.915Z,6.70
2023-04-03T07:51:33.216Z,6.80
2023-04-03T07:54:01.888Z,6.90
2023-04-03T07:56:30.246Z,7.00
2023-04-03T07:58:58.517Z,7.20
2023-04-03T08:01:27.004Z,7.30
2023-04-03T08:03:56.942Z,7.30
2023-04-03T08:06:37.461Z,7.30
2023-04-03T08:09:11.262Z,7.30
2023-04-03T08:11:41.691Z,7.30
2023-04-03T08:14:16.367Z,7.40
2023-04-03T08:16:45.689Z,7.40
2023-04-03T08:19:25.378Z,7.60
2023-04-03T08:21:56.429Z,7.70
2023-04-03T08:24:24.791Z,7.80
2023-04-03T08:26:53.254Z,7.90
2023-04-03T08:29:22.252Z,7.90
2023-04-03T08:31:51.515Z,8.00
2023-04-03T08:34:21.676Z,8.10
2023-04-03T08:36:50.054Z,8.30
2023-04-03T08:39:19.556Z,8.40
2023-04-03T08:41:49.745Z,8.40
2023-04-03T08:44:27.000Z,8.40
2023-04-03T08:47:07.464Z,8.50
2023-04-03T08:49:48.233Z,8.60
2023-04-03T08:52:23.126Z,8.80
2023-04-03T08:54:56.876Z,9.00
2023-04-03T08:57:33.588Z,9.00
2023-04-03T09:00:20.782Z,9.00
2023-04-03T09:02:51.566Z,9.00
2023-04-03T09:05:26.548Z,8.90
2023-04-03T09:08:02.550Z,8.70
2023-04-03T09:10:36.180Z,8.60
2023-04-03T09:13:21.088Z,8.70
2023-04-03T09:15:50.297Z,8.80
2023-04-03T09:18:26.163Z,9.00
2023-04-03T09:21:10.037Z,9.10
2023-04-03T09:23:47.793Z,9.20
2023-04-03T09:26:21.846Z,9.20
2023-04-03T09:28:51.065Z,9.20
2023-04-03T09:31:24.841Z,9.20
2023-04-03T09:33:58.795Z,9.20
2023-04-03T09:36:47.150Z,9.30
2023-04-03T09:39:19.905Z,9.30
2023-04-03T09:42:02.185Z,9.30
2023-04-03T09:44:35.137Z,9.20
2023-04-03T09:47:21.902Z,9.20
2023-04-03T09:49:50.212Z,9.30
2023-04-03T09:52:27.408Z,9.30
2023-04-03T09:54:55.725Z,9.30
2023-04-03T09:57:24.157Z,9.30
2023-04-03T10:00:02.403Z,9.30
2023-04-03T10:02:41.304Z,9.30
2023-04-03T10:05:30.608Z,9.40
2023-04-03T10:08:25.578Z,9.50
2023-04-03T10:11:19.757Z,9.50
2023-04-03T10:14:00.646Z,9.40
2023-04-03T10:16:40.300Z,9.30
2023-04-03T10:19:36.664Z,9.00
2023-04-03T10:22:17.201Z,9.00
2023-04-03T10:24:59.743Z,8.80
2023-04-03T10:27:46.514Z,8.80
2023-04-03T10:30:33.434Z,8.80
2023-04-03T10:33:31.989Z,8.90
2023-04-03T10:36:14.527Z,9.20
2023-04-03T10:38:57.802Z,9.90
2023-04-03T10:41:41.420Z,10.40
2023-04-03T10:44:28.913Z,10.90
2023-04-03T10:47:08.508Z,11.00
2023-04-03T10:49:59.373Z,11.10
2023-04-03T10:52:39.885Z,11.10
2023-04-03T10:55:26.569Z,11.10
2023-04-03T10:57:59.975Z,11.20
2023-04-03T11:00:40.649Z,11.10
2023-04-03T11:03:17.323Z,10.90
2023-04-03T11:05:50.376Z,10.80
2023-04-03T11:08:32.162Z,10.70
2023-04-03T11:11:04.669Z,10.50
2023-04-03T11:13:39.462Z,10.40
2023-04-03T11:16:09.921Z,10.40
2023-04-03T11:18:45.909Z,10.40
2023-04-03T11:21:23.604Z,10.40
2023-04-03T11:23:54.698Z,10.50
2023-04-03T11:26:29.518Z,10.70
2023-04-03T11:29:06.244Z,10.80
2023-04-03T11:32:02.791Z,10.80
2023-04-03T11:34:41.099Z,10.90
2023-04-03T11:37:23.046Z,11.00
2023-04-03T11:40:00.376Z,11.30
2023-04-03T11:42:40.153Z,11.60
2023-04-03T11:45:56.152Z,12.20
2023-04-03T11:48:52.221Z,12.70
2023-04-03T11:51:45.632Z,12.70
2023-04-03T11:54:49.570Z,12.40
2023-04-03T11:58:04.455Z,12.10
2023-04-03T12:00:56.868Z,12.10
2023-04-03T12:04:09.001Z,12.80
2023-04-03T12:07:22.665Z,14.00
2023-04-03T12:10:03.088Z,15.00
2023-04-03T12:12:40.292Z,15.60
2023-04-03T12:15:44.715Z,16.30
2023-04-03T12:19:03.271Z,16.90
2023-04-03T12:22:16.750Z,17.00
2023-04-03T12:24:49.380Z,16.20
2023-04-03T12:27:42.629Z,15.40
2023-04-03T12:30:25.889Z,14.50
2023-04-03T12:33:25.836Z,13.60
2023-04-03T12:36:09.906Z,13.10
2023-04-03T12:39:08.238Z,12.80
2023-04-03T12:41:50.512Z,13.10
2023-04-03T12:44:42.629Z,14.60
2023-04-03T12:47:26.333Z,16.30
2023-04-03T12:49:56.175Z,17.70
2023-04-03T12:52:43.471Z,18.10
2023-04-03T12:55:21.984Z,17.60
2023-04-03T12:57:50.662Z,17.10
2023-04-03T13:00:35.168Z,16.80
2023-04-03T13:03:06.822Z,17.50
2023-04-03T13:05:37.411Z,18.20
2023-04-03T13:08:15.984Z,18.50
2023-04-03T13:10:58.695Z,18.40
2023-04-03T13:13:27.369Z,18.20
2023-04-03T13:15:57.063Z,17.40
2023-04-03T13:18:29.923Z,16.40
2023-04-03T13:21:05.233Z,15.40
2023-04-03T13:23:40.491Z,14.80
2023-04-03T13:26:09.982Z,14.70
2023-04-03T13:28:41.614Z,15.60
2023-04-03T13:31:21.980Z,17.00
2023-04-03T13:34:04.120Z,18.50
2023-04-03T13:36:35.772Z,19.80
2023-04-03T13:39:27.064Z,20.60
2023-04-03T13:41:59.173Z,21.40
2023-04-03T13:44:33.856Z,22.10
2023-04-03T13:47:18.118Z,22.90
2023-04-03T13:50:00.046Z,22.60
2023-04-03T13:52:33.532Z,20.90
2023-04-03T13:55:37.378Z,19.30
2023-04-03T13:58:24.364Z,17.80
2023-04-03T14:00:56.466Z,17.00
2023-04-03T14:03:28.266Z,17.40
2023-04-03T14:05:57.225Z,19.00
2023-04-03T14:08:36.039Z,20.20
2023-04-03T14:11:17.489Z,20.00
2023-04-03T14:13:46.419Z,19.00
2023-04-03T14:16:19.501Z,17.90
2023-04-03T14:18:49.564Z,16.90
2023-04-03T14:21:22.176Z,16.00
2023-04-03T14:23:51.143Z,16.30
2023-04-03T14:26:24.800Z,17.00
2023-04-03T14:28:56.449Z,17.50
2023-04-03T14:31:25.380Z,18.80
2023-04-03T14:33:54.117Z,20.10
2023-04-03T14:36:27.643Z,20.60
2023-04-03T14:38:57.046Z,20.00
2023-04-03T14:41:28.604Z,18.80
2023-04-03T14:43:59.480Z,17.60
2023-04-03T14:46:45.499Z,16.60
2023-04-03T14:49:25.785Z,15.60
2023-04-03T14:51:56.987Z,14.90
2023-04-03T14:54:28.803Z,14.70
2023-04-03T14:57:02.177Z,16.00
2023-04-03T14:59:33.204Z,17.60
2023-04-03T15:02:01.475Z,18.70
2023-04-03T15:04:30.020Z,18.30
2023-04-03T15:06:58.455Z,17.50
2023-04-03T15:09:29.838Z,16.20
2023-04-03T15:12:00.133Z,15.10
2023-04-03T15:14:36.322Z,14.40
2023-04-03T15:17:06.340Z,14.80
2023-04-03T15:19:40.769Z,16.30
2023-04-03T15:22:11.885Z,16.80
2023-04-03T15:24:40.231Z,17.40
2023-04-03T15:27:10.310Z,17.90
2023-04-03T15:29:39.648Z,17.90
2023-04-03T15:32:08.571Z,17.50
2023-04-03T15:34:37.321Z,16.50
2023-04-03T15:37:06.047Z,15.50
2023-04-03T15:39:34.432Z,14.80
2023-04-03T15:42:06.858Z,14.30
2023-04-03T15:44:38.147Z,13.70
2023-04-03T15:47:06.732Z,13.20
2023-04-03T15:49:36.266Z,12.70
2023-04-03T15:52:05.648Z,12.30
2023-04-03T15:54:34.423Z,12.00
2023-04-03T15:57:02.889Z,11.80
2023-04-03T15:59:31.925Z,11.50
2023-04-03T16:02:05.962Z,11.30
2023-04-03T16:04:36.035Z,11.00
2023-04-03T16:07:05.865Z,10.80
2023-04-03T16:09:36.254Z,10.60
2023-04-03T16:12:05.685Z,10.40
2023-04-03T16:14:34.297Z,10.20
2023-04-03T16:17:04.055Z,10.10
2023-04-03T16:19:32.956Z,10.00
2023-04-03T16:22:01.485Z,10.10
2023-04-03T16:24:29.894Z,10.60
2023-04-03T16:26:58.267Z,12.00
2023-04-03T16:29:26.676Z,13.70
2023-04-03T16:31:55.270Z,15.00
2023-04-03T16:34:27.514Z,15.80
2023-04-03T16:36:56.132Z,16.40
2023-04-03T16:39:24.548Z,16.90
2023-04-03T16:41:52.931Z,17.50
2023-04-03T16:44:21.327Z,18.00
2023-04-03T16:46:49.780Z,18.20
2023-04-03T16:49:18.353Z,17.50
2023-04-03T16:51:48.256Z,16.30
2023-04-03T16:54:16.672Z,15.10
2023-04-03T16:56:45.071Z,14.10
2023-04-03T16:59:13.434Z,13.10
2023-04-03T17:01:41.961Z,12.40
2023-04-03T17:04:10.800Z,11.90
2023-04-03T17:06:39.325Z,11.40
2023-04-03T17:09:10.339Z,11.00
2023-04-03T17:11:39.094Z,10.70
2023-04-03T17:14:07.496Z,10.30
2023-04-03T17:16:38.534Z,10.00
2023-04-03T17:19:07.419Z,9.70
2023-04-03T17:21:36.315Z,9.40
2023-04-03T17:24:09.781Z,9.20
2023-04-03T17:26:38.706Z,8.90
2023-04-03T17:29:07.371Z,8.70
2023-04-03T17:31:36.267Z,8.40
2023-04-03T17:34:04.802Z,8.20
2023-04-03T17:36:35.046Z,8.00
2023-04-03T17:39:03.372Z,7.80
2023-04-03T17:41:33.373Z,7.70
2023-04-03T17:44:04.088Z,7.50
2023-04-03T17:46:35.232Z,7.30
2023-04-03T17:49:04.700Z,7.20
2023-04-03T17:51:34.812Z,7.00
2023-04-03T17:54:03.405Z,6.90
2023-04-03T17:56:33.188Z,6.80
2023-04-03T17:59:01.761Z,6.60
2023-04-03T18:01:32.679Z,6.50
2023-04-03T18:04:05.719Z,6.40
2023-04-03T18:06:41.127Z,6.30
2023-04-03T18:09:15.307Z,6.20
2023-04-03T18:11:46.961Z,6.00
2023-04-03T18:14:18.626Z,5.90
2023-04-03T18:16:47.354Z,5.80
2023-04-03T18:21:47.890Z,5.60
2023-04-03T18:24:20.537Z,5.50
2023-04-03T18:26:57.632Z,5.40
2023-04-03T18:29:27.153Z,5.30
2023-04-03T18:31:58.852Z,5.20
2023-04-03T18:34:27.917Z,5.10
2023-04-03T18:36:56.473Z,5.00
2023-04-03T18:39:26.280Z,4.90
2023-04-03T18:42:00.877Z,4.80
2023-04-03T18:44:31.771Z,4.70
2023-04-03T18:47:00.715Z,4.60
2023-04-03T18:49:31.846Z,4.50
2023-04-03T18:52:00.541Z,4.40
2023-04-03T18:54:28.894Z,4.40
2023-04-03T18:56:59.136Z,4.30
2023-04-03T18:59:27.735Z,4.20
2023-04-03T19:01:57.203Z,4.10
2023-04-03T19:04:25.837Z,4.10
2023-04-03T19:06:54.573Z,4.00
2023-04-03T19:09:23.696Z,3.90
2023-04-03T19:11:52.516Z,3.90
2023-04-03T19:14:23.783Z,3.80
2023-04-03T19:16:52.215Z,3.70
2023-04-03T19:19:20.613Z,3.70
2023-04-03T19:21:48.973Z,3.60
2023-04-03T19:24:17.276Z,3.60
2023-04-03T19:26:46.147Z,3.50
2023-04-03T19:29:14.820Z,3.50
2023-04-03T19:31:44.585Z,3.40
2023-04-03T19:34:13.178Z,3.40
2023-04-03T19:36:42.571Z,3.30
2023-04-03T19:39:12.317Z,3.20
2023-04-03T19:41:45.586Z,3.20
2023-04-03T19:44:14.436Z,3.20
2023-04-03T19:46:51.167Z,3.10
2023-04-03T19:49:20.779Z,3.00
2023-04-03T19:51:49.257Z,3.00
2023-04-03T19:54:18.692Z,2.90
2023-04-03T19:56:47.356Z,2.90
2023-04-03T19:59:16.213Z,2.80
2023-04-03T20:01:47.150Z,2.70
2023-04-03T20:04:15.992Z,2.70
2023-04-03T20:06:44.333Z,2.60
2023-04-03T20:09:12.711Z,2.50
2023-04-03T20:11:41.333Z,2.50
2023-04-03T20:14:09.747Z,2.40
2023-04-03T20:16:38.022Z,2.30
2023-04-03T20:19:07.938Z,2.30
2023-04-03T20:21:37.046Z,2.20
2023-04-03T20:24:10.780Z,2.20
2023-04-03T20:26:46.051Z,2.10
2023-04-03T20:29:16.608Z,2.00
2023-04-03T20:31:45.209Z,2.00
2023-04-03T20:34:16.121Z,1.90
2023-04-03T20:36:48.031Z,1.80
2023-04-03T20:39:19.339Z,1.80
2023-04-03T20:41:47.641Z,1.70
2023-04-03T20:44:18.451Z,1.70
2023-04-03T20:46:52.768Z,1.60
2023-04-03T20:49:24.952Z,1.60
2023-04-03T20:51:53.906Z,1.50
2023-04-03T20:54:23.368Z,1.50
2023-04-03T20:56:51.663Z,1.40
2023-04-03T20:59:20.590Z,1.40
2023-04-03T21:01:49.905Z,1.30
2023-04-03T21:04:26.560Z,1.20
2023-04-03T21:07:52.251Z,1.10
2023-04-03T21:11:17.016Z,1.10
2023-04-03T21:14:41.458Z,1.00
2023-04-03T21:17:09.230Z,0.90
2023-04-03T21:19:45.783Z,0.90
2023-04-03T21:22:14.677Z,0.80
2023-04-03T21:24:44.068Z,0.80
2023-04-03T21:27:13.102Z,0.80
2023-04-03T21:29:41.566Z,0.70
2023-04-03T21:32:09.793Z,0.70
2023-04-03T21:34:39.697Z,0.60
2023-04-03T21:37:11.672Z,0.60
2023-04-03T21:39:41.993Z,0.60
2023-04-03T21:42:10.410Z,0.50
2023-04-03T21:44:38.708Z,0.50
2023-04-03T21:47:07.611Z,0.50
2023-04-03T21:49:35.810Z,0.40
2023-04-03T21:52:05.533Z,0.40
2023-04-03T21:54:34.102Z,0.40
2023-04-03T21:57:02.853Z,0.30
2023-04-03T21:59:31.398Z,0.30
2023-04-03T22:01:59.707Z,0.30
2023-04-03T22:04:29.982Z,0.20
2023-04-03T22:06:58.413Z,0.20
2023-04-03T22:09:28.139Z,0.20
2023-04-03T22:11:57.100Z,0.10
2023-04-03T22:14:25.502Z,0.10
2023-04-03T22:16:54.767Z,0.10
2023-04-03T22:19:23.626Z,0.10
2023-04-03T22:21:52.757Z,0.10
2023-04-03T22:24:21.023Z,0.10
2023-04-03T22:26:50.648Z,0.00
2023-04-03T22:29:18.940Z,0.00
2023-04-03T22:31:47.182Z,0.00
2023-04-03T22:34:16.679Z,0.00
2023-04-03T22:36:44.928Z,-0.10
2023-04-03T22:39:15.124Z,0.00
2023-04-03T22:41:45.224Z,-0.10
2023-04-03T22:44:15.100Z,-0.10
2023-04-03T22:46:43.327Z,-0.10
2023-04-03T22:49:12.132Z,-0.10
2023-04-03T22:51:40.389Z,-0.10
2023-04-03T22:54:08.713Z,-0.10
2023-04-03T22:56:36.961Z,-0.10
2023-04-03T22:59:05.446Z,0.00
2023-04-03T23:01:36.687Z,0.00
2023-04-03T23:04:07.138Z,0.10
2023-04-03T23:06:35.814Z,0.20
2023-04-03T23:09:04.184Z,0.30
2023-04-03T23:11:32.454Z,0.50
2023-04-03T23:14:01.168Z,0.60
2023-04-03T23:16:29.378Z,0.80
2023-04-03T23:18:59.295Z,0.90
2023-04-03T23:21:27.874Z,1.00
2023-04-03T23:23:56.162Z,1.10
2023-04-03T23:26:25.478Z,1.20
2023-04-03T23:28:53.620Z,1.30
2023-04-03T23:31:22.687Z,1.50
2023-04-03T23:33:51.277Z,1.60
2023-04-03T23:36:20.997Z,1.60
2023-04-03T23:38:49.185Z,1.70
2023-04-03T23:41:17.393Z,1.80
2023-04-03T23:43:47.409Z,1.90
2023-04-03T23:46:15.722Z,1.90
2023-04-03T23:48:43.931Z,2.00
2023-04-03T23:51:12.121Z,2.10
2023-04-03T23:53:41.681Z,2.10
2023-04-03T23:56:13.118Z,2.20
2023-04-03T23:58:41.405Z,2.20
